createdAt,value
2022-09-20T00:01:33.766Z,79.88
2022-09-20T00:04:05.855Z,80.54
2022-09-20T00:06:34.958Z,82.17
2022-09-20T00:09:03.692Z,83.69
2022-09-20T00:11:33.775Z,84.23
2022-09-20T00:14:03.158Z,84.47
2022-09-20T00:16:33.501Z,83.79
2022-09-20T00:19:06.091Z,82.51
2022-09-20T00:21:36.548Z,81.72
2022-09-20T00:24:06.147Z,81.71
2022-09-20T00:26:34.548Z,83.39
2022-09-20T00:29:02.733Z,83.34
2022-09-20T00:31:30.960Z,83.02
2022-09-20T00:34:17.016Z,81.89
2022-09-20T00:36:46.785Z,81.90
2022-09-20T00:39:16.670Z,81.77
2022-09-20T00:41:45.048Z,82.63
2022-09-20T00:44:52.259Z,82.41
2022-09-20T00:47:26.911Z,82.63
2022-09-20T00:50:01.260Z,82.18
2022-09-20T00:52:31.601Z,82.53
2022-09-20T00:55:01.511Z,82.19
2022-09-20T00:57:35.333Z,81.15
2022-09-20T01:00:07.276Z,81.62
2022-09-20T01:02:38.864Z,81.65
2022-09-20T01:05:10.160Z,81.20
2022-09-20T01:07:40.236Z,81.13
2022-09-20T01:10:08.811Z,81.25
2022-09-20T01:12:40.541Z,81.92
2022-09-20T01:15:10.859Z,82.85
2022-09-20T01:17:44.219Z,85.00
2022-09-20T01:20:18.199Z,85.77
2022-09-20T01:23:00.014Z,84.90
2022-09-20T01:25:52.401Z,84.41
2022-09-20T01:28:22.929Z,84.35
2022-09-20T01:31:02.252Z,85.18
2022-09-20T01:33:37.838Z,85.58
2022-09-20T01:36:07.510Z,86.08
2022-09-20T01:38:44.331Z,85.04
2022-09-20T01:41:18.448Z,84.31
2022-09-20T01:43:53.199Z,84.13
2022-09-20T01:46:32.363Z,84.18
2022-09-20T01:49:12.498Z,84.40
2022-09-20T01:52:09.211Z,84.60
2022-09-20T01:55:24.390Z,83.84
2022-09-20T01:58:29.474Z,83.76
2022-09-20T02:01:23.783Z,85.82
2022-09-20T02:04:11.261Z,86.67
2022-09-20T02:07:09.059Z,85.31
2022-09-20T02:09:58.057Z,85.75
2022-09-20T02:12:52.031Z,85.59
2022-09-20T02:15:41.439Z,85.88
2022-09-20T02:18:24.421Z,85.57
2022-09-20T02:20:58.041Z,85.77
2022-09-20T02:23:41.899Z,86.59
2022-09-20T02:26:23.123Z,85.86
2022-09-20T02:28:57.248Z,87.61
2022-09-20T02:31:42.782Z,87.39
2022-09-20T02:34:40.662Z,87.59
2022-09-20T02:37:27.031Z,87.60
2022-09-20T02:40:10.637Z,87.58
2022-09-20T02:42:46.311Z,87.68
2022-09-20T02:45:24.267Z,88.84
2022-09-20T02:47:59.378Z,87.58
2022-09-20T02:50:38.621Z,87.80
2022-09-20T02:53:19.999Z,87.60
2022-09-20T02:55:55.398Z,89.01
2022-09-20T02:58:34.513Z,90.13
2022-09-20T03:01:10.657Z,90.06
2022-09-20T03:03:48.479Z,89.87
2022-09-20T03:06:26.296Z,89.21
2022-09-20T03:09:02.410Z,88.95
2022-09-20T03:11:37.404Z,88.87
2022-09-20T03:14:15.239Z,89.28
2022-09-20T03:16:57.791Z,89.91
2022-09-20T03:19:36.951Z,89.86
2022-09-20T03:22:19.795Z,88.19
2022-09-20T03:25:02.430Z,88.73
2022-09-20T03:27:37.976Z,88.15
2022-09-20T03:30:21.336Z,87.91
2022-09-20T03:33:02.965Z,87.51
2022-09-20T03:35:47.531Z,87.58
2022-09-20T03:38:30.580Z,87.57
2022-09-20T03:41:17.908Z,87.84
2022-09-20T03:44:05.718Z,88.52
2022-09-20T03:46:45.240Z,89.31
2022-09-20T03:49:54.952Z,88.05
2022-09-20T03:52:42.968Z,86.93
2022-09-20T03:55:43.149Z,87.34
2022-09-20T03:58:36.060Z,88.50
2022-09-20T04:01:29.358Z,89.99
2022-09-20T04:04:05.038Z,90.65
2022-09-20T04:06:49.238Z,90.21
2022-09-20T04:09:48.690Z,90.80
2022-09-20T04:12:29.031Z,90.04
2022-09-20T04:15:08.570Z,90.39
2022-09-20T04:17:49.060Z,90.00
2022-09-20T04:20:21.963Z,89.75
2022-09-20T04:22:54.389Z,89.60
2022-09-20T04:25:28.931Z,89.57
2022-09-20T04:28:04.148Z,89.68
2022-09-20T04:30:37.752Z,89.29
2022-09-20T04:33:15.908Z,90.00
2022-09-20T04:36:11.409Z,91.85
2022-09-20T04:38:40.411Z,94.34
2022-09-20T04:41:37.989Z,94.70
2022-09-20T04:44:51.318Z,94.08
2022-09-20T04:47:44.478Z,93.07
2022-09-20T04:50:48.009Z,92.86
2022-09-20T04:53:48.111Z,92.07
2022-09-20T04:56:22.604Z,92.76
2022-09-20T04:59:06.120Z,91.90
2022-09-20T05:02:16.022Z,92.02
2022-09-20T05:05:26.008Z,92.21
2022-09-20T05:08:30.135Z,91.70
2022-09-20T05:11:32.103Z,91.69
2022-09-20T05:14:26.215Z,93.35
2022-09-20T05:17:14.931Z,92.05
2022-09-20T05:20:02.790Z,92.41
2022-09-20T05:22:56.493Z,93.79
2022-09-20T05:25:48.689Z,90.97
2022-09-20T05:28:26.678Z,91.35
2022-09-20T05:30:59.268Z,93.00
2022-09-20T05:33:36.812Z,93.39
2022-09-20T05:36:14.944Z,93.87
2022-09-20T05:38:49.892Z,93.76
2022-09-20T05:41:32.041Z,93.46
2022-09-20T05:44:10.208Z,93.28
2022-09-20T05:46:51.429Z,93.73
2022-09-20T05:49:34.660Z,93.57
2022-09-20T05:52:18.331Z,91.67
2022-09-20T05:55:09.327Z,88.40
2022-09-20T05:57:50.919Z,88.52
2022-09-20T06:00:21.829Z,89.11
2022-09-20T06:02:58.723Z,89.06
2022-09-20T06:05:35.059Z,88.40
2022-09-20T06:08:20.331Z,89.20
2022-09-20T06:11:01.788Z,89.69
2022-09-20T06:13:42.739Z,91.96
2022-09-20T06:16:17.505Z,92.32
2022-09-20T06:18:55.850Z,91.61
2022-09-20T06:21:32.871Z,90.47
2022-09-20T06:24:03.270Z,90.33
2022-09-20T06:26:37.053Z,90.07
2022-09-20T06:29:09.189Z,90.94
2022-09-20T06:31:38.276Z,91.08
2022-09-20T06:34:10.151Z,91.59
2022-09-20T06:36:58.060Z,89.22
2022-09-20T06:39:52.091Z,88.53
2022-09-20T06:42:25.296Z,87.71
2022-09-20T06:44:55.767Z,86.98
2022-09-20T06:47:24.235Z,86.47
2022-09-20T06:49:52.518Z,86.26
2022-09-20T06:52:22.780Z,85.84
2022-09-20T06:54:54.379Z,85.46
2022-09-20T06:57:32.453Z,84.78
2022-09-20T07:00:00.617Z,82.82
2022-09-20T07:02:28.866Z,80.54
2022-09-20T07:04:59.456Z,80.50
2022-09-20T07:07:27.718Z,80.20
2022-09-20T07:09:55.829Z,81.77
2022-09-20T07:12:25.761Z,82.05
2022-09-20T07:14:54.474Z,82.38
2022-09-20T07:17:22.878Z,82.28
2022-09-20T07:19:51.199Z,80.63
2022-09-20T07:22:19.272Z,79.54
2022-09-20T07:24:48.460Z,79.20
2022-09-20T07:27:16.625Z,79.82
2022-09-20T07:29:46.696Z,81.65
2022-09-20T07:32:15.515Z,82.99
2022-09-20T07:34:43.591Z,83.75
2022-09-20T07:37:11.879Z,84.07
2022-09-20T07:39:40.221Z,84.54
2022-09-20T07:42:08.398Z,80.94
2022-09-20T07:44:36.551Z,78.16
2022-09-20T07:47:06.529Z,77.52
2022-09-20T07:49:34.612Z,75.78
2022-09-20T07:52:03.429Z,75.50
2022-09-20T07:54:31.670Z,73.01
2022-09-20T07:57:00.349Z,71.32
2022-09-20T07:59:28.448Z,70.49
2022-09-20T08:01:57.817Z,70.91
2022-09-20T08:04:27.618Z,71.11
2022-09-20T08:06:55.737Z,70.89
2022-09-20T08:09:23.829Z,70.69
2022-09-20T08:11:52.467Z,70.52
2022-09-20T08:14:21.051Z,69.83
2022-09-20T08:16:50.678Z,66.15
2022-09-20T08:19:21.005Z,66.00
2022-09-20T08:21:51.675Z,66.89
2022-09-20T08:24:19.960Z,67.20
2022-09-20T08:26:48.639Z,64.26
2022-09-20T08:29:16.890Z,62.17
2022-09-20T08:31:45.258Z,59.76
2022-09-20T08:34:15.272Z,60.57
2022-09-20T08:36:46.929Z,60.08
2022-09-20T08:42:14.425Z,56.58
2022-09-20T08:44:57.868Z,55.03
2022-09-20T08:47:29.213Z,53.60
2022-09-20T08:49:57.799Z,54.32
2022-09-20T08:52:36.367Z,54.25
2022-09-20T08:55:17.093Z,52.78
2022-09-20T08:57:49.332Z,52.69
2022-09-20T09:00:19.798Z,51.63
2022-09-20T09:02:48.377Z,52.22
2022-09-20T09:05:32.703Z,52.60
2022-09-20T09:08:04.622Z,53.21
2022-09-20T09:10:44.825Z,54.25
2022-09-20T09:13:23.191Z,53.13
2022-09-20T09:15:58.279Z,52.75
2022-09-20T09:18:35.322Z,51.16
2022-09-20T09:21:05.502Z,50.46
2022-09-20T09:23:42.255Z,48.80
2022-09-20T09:26:21.419Z,48.98
2022-09-20T09:29:09.932Z,48.94
2022-09-20T09:31:39.987Z,49.72
2022-09-20T09:34:24.542Z,50.49
2022-09-20T09:36:54.580Z,49.61
2022-09-20T09:39:27.109Z,49.61
2022-09-20T09:41:58.048Z,47.66
2022-09-20T09:44:28.880Z,48.66
2022-09-20T09:46:58.140Z,47.31
2022-09-20T09:49:28.052Z,47.15
2022-09-20T09:52:06.352Z,47.29
2022-09-20T09:54:38.440Z,47.54
2022-09-20T09:57:30.789Z,47.46
2022-09-20T10:00:18.294Z,47.48
2022-09-20T10:03:09.320Z,49.25
2022-09-20T10:05:47.598Z,46.53
2022-09-20T10:08:29.688Z,47.56
2022-09-20T10:11:07.595Z,45.75
2022-09-20T10:13:44.304Z,46.21
2022-09-20T10:16:23.648Z,46.30
2022-09-20T10:19:00.900Z,45.57
2022-09-20T10:21:41.519Z,47.03
2022-09-20T10:24:19.320Z,47.59
2022-09-20T10:27:06.699Z,46.84
2022-09-20T10:29:46.582Z,46.29
2022-09-20T10:32:28.788Z,47.55
2022-09-20T10:35:08.969Z,47.18
2022-09-20T10:37:51.269Z,46.12
2022-09-20T10:40:48.630Z,47.23
2022-09-20T10:43:41.790Z,47.62
2022-09-20T10:46:37.952Z,47.50
2022-09-20T10:49:23.837Z,46.63
2022-09-20T10:52:04.536Z,45.79
2022-09-20T10:54:46.772Z,45.60
2022-09-20T10:57:39.690Z,45.81
2022-09-20T11:00:21.551Z,44.28
2022-09-20T11:03:09.899Z,43.74
2022-09-20T11:05:55.800Z,42.56
2022-09-20T11:08:27.994Z,42.55
2022-09-20T11:11:00.300Z,42.19
2022-09-20T11:13:35.337Z,41.88
2022-09-20T11:16:11.241Z,42.63
2022-09-20T11:18:45.228Z,44.09
2022-09-20T11:21:22.076Z,49.88
2022-09-20T11:23:56.152Z,54.03
2022-09-20T11:26:31.821Z,57.53
2022-09-20T11:29:09.648Z,56.58
2022-09-20T11:31:40.949Z,57.74
2022-09-20T11:34:18.282Z,57.88
2022-09-20T11:36:54.730Z,54.47
2022-09-20T11:39:29.218Z,56.02
2022-09-20T11:42:00.532Z,55.43
2022-09-20T11:44:29.229Z,55.11
2022-09-20T11:47:02.951Z,49.44
2022-09-20T11:49:42.351Z,51.16
2022-09-20T11:52:38.590Z,48.57
2022-09-20T11:55:37.575Z,49.13
2022-09-20T11:58:09.410Z,48.12
2022-09-20T12:00:41.613Z,45.13
2022-09-20T12:03:27.080Z,44.83
2022-09-20T12:06:01.059Z,45.51
2022-09-20T12:08:33.602Z,46.73
2022-09-20T12:11:05.556Z,48.65
2022-09-20T12:13:36.871Z,49.46
2022-09-20T12:16:08.298Z,45.81
2022-09-20T12:19:02.543Z,46.32
2022-09-20T12:21:32.245Z,46.29
2022-09-20T12:24:20.268Z,48.06
2022-09-20T12:26:51.479Z,46.60
2022-09-20T12:29:55.301Z,45.88
2022-09-20T12:32:50.609Z,47.46
2022-09-20T12:36:00.742Z,47.08
2022-09-20T12:38:36.286Z,46.63
2022-09-20T12:41:11.151Z,45.60
2022-09-20T12:43:50.650Z,46.31
2022-09-20T12:46:24.731Z,46.73
2022-09-20T12:49:11.357Z,45.29
2022-09-20T12:51:56.962Z,43.91
2022-09-20T12:54:26.740Z,43.32
2022-09-20T12:56:55.230Z,45.31
2022-09-20T12:59:31.278Z,43.82
2022-09-20T13:02:34.365Z,43.04
2022-09-20T13:05:02.879Z,44.64
2022-09-20T13:07:43.577Z,43.54
2022-09-20T13:10:24.300Z,42.63
2022-09-20T13:12:57.380Z,41.52
2022-09-20T13:15:26.235Z,42.97
2022-09-20T13:17:57.942Z,41.66
2022-09-20T13:20:30.200Z,40.67
2022-09-20T13:23:00.632Z,41.02
2022-09-20T13:25:30.756Z,40.25
2022-09-20T13:28:08.177Z,38.97
2022-09-20T13:30:37.037Z,38.00
2022-09-20T13:33:22.420Z,37.70
2022-09-20T13:35:54.925Z,37.43
2022-09-20T13:38:31.979Z,36.65
2022-09-20T13:41:09.289Z,36.80
2022-09-20T13:43:41.419Z,38.12
2022-09-20T13:46:12.250Z,37.34
2022-09-20T13:48:40.974Z,37.43
2022-09-20T13:51:19.074Z,36.83
2022-09-20T13:53:48.117Z,36.02
2022-09-20T13:56:23.746Z,35.96
2022-09-20T13:58:52.870Z,33.99
2022-09-20T14:01:30.058Z,33.13
2022-09-20T14:04:04.902Z,33.47
2022-09-20T14:06:33.740Z,32.11
2022-09-20T14:09:10.477Z,32.49
2022-09-20T14:11:41.797Z,31.79
2022-09-20T14:14:17.462Z,32.09
2022-09-20T14:16:49.454Z,31.40
2022-09-20T14:19:20.259Z,29.74
2022-09-20T14:21:49.779Z,30.95
2022-09-20T14:24:28.932Z,30.42
2022-09-20T14:27:13.601Z,32.62
2022-09-20T14:29:43.770Z,32.73
2022-09-20T14:32:29.928Z,34.08
2022-09-20T14:35:04.520Z,34.79
2022-09-20T14:37:35.451Z,34.36
2022-09-20T14:40:07.366Z,35.37
2022-09-20T14:42:42.339Z,35.99
2022-09-20T14:45:23.886Z,34.76
2022-09-20T14:47:58.962Z,32.58
2022-09-20T14:50:30.363Z,32.79
2022-09-20T14:53:16.177Z,33.00
2022-09-20T14:55:57.509Z,33.36
2022-09-20T14:58:27.481Z,35.27
2022-09-20T15:00:59.202Z,35.19
2022-09-20T15:03:32.522Z,35.33
2022-09-20T15:06:01.134Z,34.55
2022-09-20T15:08:29.788Z,35.02
2022-09-20T15:10:57.970Z,35.44
2022-09-20T15:13:27.748Z,35.85
2022-09-20T15:15:56.412Z,37.05
2022-09-20T15:18:27.545Z,37.98
2022-09-20T15:20:56.391Z,38.08
2022-09-20T15:23:24.698Z,38.64
2022-09-20T15:25:54.815Z,39.91
2022-09-20T15:28:23.230Z,40.72
2022-09-20T15:30:53.103Z,40.75
2022-09-20T15:33:23.033Z,41.47
2022-09-20T15:35:51.645Z,42.67
2022-09-20T15:38:20.669Z,43.38
2022-09-20T15:40:50.311Z,44.33
2022-09-20T15:43:22.094Z,44.13
2022-09-20T15:45:53.374Z,44.54
2022-09-20T15:48:24.720Z,44.72
2022-09-20T15:51:03.246Z,45.35
2022-09-20T15:53:35.645Z,46.16
2022-09-20T15:56:05.358Z,46.50
2022-09-20T15:58:36.537Z,46.82
2022-09-20T16:01:08.581Z,47.26
2022-09-20T16:03:37.636Z,47.68
2022-09-20T16:06:08.333Z,48.19
2022-09-20T16:08:37.929Z,48.22
2022-09-20T16:11:06.998Z,48.69
2022-09-20T16:13:36.440Z,49.10
2022-09-20T16:16:07.070Z,49.01
2022-09-20T16:18:54.712Z,49.83
2022-09-20T16:21:23.420Z,50.09
2022-09-20T16:23:53.237Z,50.83
2022-09-20T16:26:23.484Z,49.99
2022-09-20T16:28:52.312Z,49.86
2022-09-20T16:31:40.225Z,50.26
2022-09-20T16:34:13.777Z,50.82
2022-09-20T16:36:43.536Z,49.44
2022-09-20T16:39:13.078Z,49.25
2022-09-20T16:41:41.878Z,49.48
2022-09-20T16:44:10.599Z,49.62
2022-09-20T16:46:40.441Z,50.03
2022-09-20T16:49:11.761Z,49.84
2022-09-20T16:51:43.057Z,49.95
2022-09-20T16:54:13.222Z,50.30
2022-09-20T16:56:43.362Z,50.83
2022-09-20T16:59:12.668Z,49.88
2022-09-20T17:01:42.643Z,50.09
2022-09-20T17:04:13.549Z,49.79
2022-09-20T17:06:43.461Z,50.26
2022-09-20T17:09:12.338Z,50.32
2022-09-20T17:11:42.495Z,51.16
2022-09-20T17:14:10.751Z,50.96
2022-09-20T17:16:42.454Z,51.33
2022-09-20T17:19:11.892Z,51.56
2022-09-20T17:21:43.557Z,52.47
2022-09-20T17:24:12.411Z,52.76
2022-09-20T17:26:41.947Z,53.17
2022-09-20T17:29:14.045Z,53.29
2022-09-20T17:31:48.775Z,53.62
2022-09-20T17:34:22.122Z,54.33
2022-09-20T17:36:51.067Z,53.84
2022-09-20T17:39:19.849Z,54.45
2022-09-20T17:41:49.718Z,56.30
2022-09-20T17:44:18.529Z,57.19
2022-09-20T17:46:50.069Z,57.13
2022-09-20T17:49:20.602Z,57.31
2022-09-20T17:51:50.216Z,57.14
2022-09-20T17:54:19.314Z,56.16
2022-09-20T17:56:49.055Z,56.70
2022-09-20T17:59:18.712Z,56.92
2022-09-20T18:01:50.002Z,56.97
2022-09-20T18:04:21.071Z,56.56
2022-09-20T18:06:51.031Z,56.44
2022-09-20T18:09:20.717Z,56.81
2022-09-20T18:11:50.269Z,55.60
2022-09-20T18:14:20.218Z,55.37
2022-09-20T18:16:52.496Z,55.94
2022-09-20T18:19:22.826Z,55.60
2022-09-20T18:21:51.381Z,55.65
2022-09-20T18:24:19.587Z,56.30
2022-09-20T18:26:47.708Z,56.72
2022-09-20T18:29:18.385Z,57.24
2022-09-20T18:31:50.841Z,59.10
2022-09-20T18:34:20.870Z,60.67
2022-09-20T18:36:53.313Z,61.27
2022-09-20T18:39:23.245Z,61.55
2022-09-20T18:41:51.639Z,63.00
2022-09-20T18:44:20.829Z,64.55
2022-09-20T18:46:53.564Z,64.07
2022-09-20T18:49:22.729Z,64.99
2022-09-20T18:51:50.970Z,64.33
2022-09-20T18:54:19.738Z,65.21
2022-09-20T18:56:50.102Z,63.72
2022-09-20T18:59:20.861Z,64.18
2022-09-20T19:02:24.323Z,63.16
2022-09-20T19:05:24.470Z,61.73
2022-09-20T19:08:04.358Z,61.41
2022-09-20T19:10:41.674Z,60.96
2022-09-20T19:13:24.493Z,60.28
2022-09-20T19:16:16.907Z,61.15
2022-09-20T19:19:04.311Z,61.74
2022-09-20T19:21:38.791Z,62.04
2022-09-20T19:24:19.119Z,63.24
2022-09-20T19:26:48.225Z,64.63
2022-09-20T19:29:22.198Z,64.89
2022-09-20T19:31:53.777Z,67.34
2022-09-20T19:34:25.893Z,68.92
2022-09-20T19:37:08.335Z,68.55
2022-09-20T19:39:49.072Z,68.24
2022-09-20T19:42:29.682Z,67.94
2022-09-20T19:45:10.043Z,68.19
2022-09-20T19:47:50.513Z,68.20
2022-09-20T19:50:29.602Z,68.72
2022-09-20T19:52:58.377Z,67.90
2022-09-20T19:55:27.198Z,63.50
2022-09-20T19:57:55.930Z,64.02
2022-09-20T20:00:24.929Z,63.58
2022-09-20T20:02:54.101Z,62.64
2022-09-20T20:05:27.774Z,61.86
2022-09-20T20:08:08.288Z,61.19
2022-09-20T20:10:47.805Z,61.35
2022-09-20T20:13:41.732Z,62.60
2022-09-20T20:16:15.912Z,61.94
2022-09-20T20:18:57.074Z,61.40
2022-09-20T20:21:45.570Z,61.86
2022-09-20T20:24:25.972Z,61.69
2022-09-20T20:26:54.458Z,61.10
2022-09-20T20:29:22.617Z,61.99
2022-09-20T20:31:50.728Z,62.36
2022-09-20T20:34:20.641Z,62.55
2022-09-20T20:36:50.128Z,62.97
2022-09-20T20:39:18.270Z,64.39
2022-09-20T20:41:52.725Z,63.97
2022-09-20T20:44:22.192Z,64.44
2022-09-20T20:46:50.935Z,66.09
2022-09-20T20:49:19.038Z,66.42
2022-09-20T20:51:47.809Z,67.39
2022-09-20T20:54:17.521Z,67.37
2022-09-20T20:56:45.650Z,67.94
2022-09-20T20:59:13.890Z,69.28
2022-09-20T21:01:44.793Z,68.52
2022-09-20T21:04:13.528Z,69.49
2022-09-20T21:06:42.758Z,69.67
2022-09-20T21:09:12.414Z,68.99
2022-09-20T21:11:44.482Z,69.20
2022-09-20T21:14:13.530Z,68.99
2022-09-20T21:16:43.684Z,69.85
2022-09-20T21:19:15.467Z,70.30
2022-09-20T21:21:45.518Z,70.68
2022-09-20T21:24:17.531Z,70.85
2022-09-20T21:26:48.640Z,71.57
2022-09-20T21:29:17.568Z,71.36
2022-09-20T21:31:48.512Z,71.62
2022-09-20T21:34:17.518Z,71.76
2022-09-20T21:36:45.931Z,72.53
2022-09-20T21:39:14.530Z,72.84
2022-09-20T21:41:43.834Z,72.88
2022-09-20T21:44:15.068Z,73.25
2022-09-20T21:46:43.508Z,72.81
2022-09-20T21:49:13.308Z,73.76
2022-09-20T21:51:44.093Z,74.49
2022-09-20T21:54:12.680Z,75.45
2022-09-20T21:56:41.542Z,76.00
2022-09-20T21:59:10.072Z,75.26
2022-09-20T22:01:41.327Z,75.33
2022-09-20T22:04:10.914Z,76.08
2022-09-20T22:06:40.848Z,77.05
2022-09-20T22:09:10.430Z,77.09
2022-09-20T22:11:40.138Z,78.24
2022-09-20T22:14:09.341Z,77.38
2022-09-20T22:16:40.394Z,78.43
2022-09-20T22:19:10.446Z,78.29
2022-09-20T22:21:40.350Z,79.89
2022-09-20T22:24:10.648Z,81.43
2022-09-20T22:26:41.449Z,80.46
2022-09-20T22:29:09.716Z,80.48
2022-09-20T22:31:45.109Z,80.96
2022-09-20T22:34:16.209Z,81.20
2022-09-20T22:36:44.808Z,79.71
2022-09-20T22:39:13.922Z,78.13
2022-09-20T22:41:42.962Z,77.08
2022-09-20T22:44:12.115Z,76.07
2022-09-20T22:46:41.849Z,75.52
2022-09-20T22:49:10.850Z,76.60
2022-09-20T22:51:39.735Z,77.50
2022-09-20T22:54:10.397Z,78.49
2022-09-20T22:56:41.676Z,78.99
2022-09-20T22:59:11.316Z,79.22
2022-09-20T23:01:43.095Z,79.51
2022-09-20T23:04:14.281Z,79.62
2022-09-20T23:06:44.508Z,80.48
2022-09-20T23:09:14.530Z,79.92
2022-09-20T23:11:43.636Z,80.49
2022-09-20T23:14:13.402Z,79.68
2022-09-20T23:16:44.278Z,81.53
2022-09-20T23:19:14.231Z,81.94
2022-09-20T23:21:44.000Z,82.73
2022-09-20T23:24:14.849Z,82.86
2022-09-20T23:26:44.591Z,83.48
2022-09-20T23:29:14.190Z,83.78
2022-09-20T23:31:46.341Z,84.16
2022-09-20T23:34:15.859Z,84.50
2022-09-20T23:36:45.198Z,84.48
2022-09-20T23:39:14.743Z,84.72
2022-09-20T23:41:46.971Z,84.75
2022-09-20T23:44:18.218Z,84.83
2022-09-20T23:46:47.692Z,84.96
2022-09-20T23:49:15.793Z,84.25
2022-09-20T23:51:44.099Z,84.81
2022-09-20T23:54:12.230Z,84.73
2022-09-20T23:56:40.378Z,85.10
2022-09-20T23:59:08.478Z,85.02
